BWI weather

Baltimore/Washington International Thurgood Marshall Airport
Baltimore, Maryland, United States

Public forecast

Using degrees Fahrenheit for public forecast. Weather courtesy of forecast.io.

Current aviation weather report (METAR) for Baltimore/Washington International Thurgood Marshall Airport

Retrieved 2020/04/04 22:54 UTC (35 minutes ago):

KBWI 042254Z 12004KT 10SM OVC042 13/06 A3001 RMK AO2 SLP164 T01330056

Aviation forecast (TAF) for Baltimore/Washington International Thurgood Marshall Airport

Retrieved 2020/04/04 18:30 UTC (5 hours ago):

TAF KBWI 041727Z 0418/0524 02007KT P6SM OVC040 FM041900 03005KT P6SM OVC035 FM050000 VRB03KT P6SM BKN060 FM052000 22006KT P6SM BKN040